Time;durP1;ratioP1;P1;durP2;ratioP2;P2;SDS_P1;SDS_P2;PMS_P1;PMS_P2;Temp;Humidity;BMP_temperature;BMP_pressure;BME280_temperature;BME280_humidity;BME280_pressure;Samples;Min_cycle;Max_cycle;Signal;HPM_P1;HPM_P2
2024/02/25 00:02:41;;;;;;;0.80;0.47;;;;;;;-141.50;100.00;63355.56;5010975;28;20042;-81
2024/02/25 00:05:09;;;;;;;0.57;0.40;;;;;;;-141.50;100.00;63355.56;5013758;28;20116;-81
2024/02/25 00:07:36;;;;;;;0.70;0.40;;;;;;;-141.50;100.00;63355.56;4994929;28;20073;-81
2024/02/25 00:10:03;;;;;;;0.85;0.40;;;;;;;-141.50;100.00;63355.56;4996014;28;20081;-81
2024/02/25 00:12:30;;;;;;;0.90;0.50;;;;;;;-141.50;100.00;63355.56;5014735;28;20315;-81
2024/02/25 00:14:57;;;;;;;0.50;0.30;;;;;;;-141.50;100.00;63355.56;5010141;28;20058;-80
2024/02/25 00:17:24;;;;;;;0.20;0.20;;;;;;;-141.50;100.00;63355.56;4995148;28;20061;-79
2024/02/25 00:19:51;;;;;;;1.02;0.40;;;;;;;-141.50;100.00;63355.56;4980588;28;20045;-79
2024/02/25 00:22:18;;;;;;;0.45;0.20;;;;;;;-141.50;100.00;63355.56;5013141;28;20113;-80
2024/02/25 00:24:45;;;;;;;1.00;0.30;;;;;;;-141.50;100.00;63355.56;5012708;28;20046;-80
2024/02/25 00:27:11;;;;;;;0.82;0.40;;;;;;;-141.50;100.00;63355.56;4993316;28;20068;-79
2024/02/25 00:29:38;;;;;;;0.93;0.50;;;;;;;-141.50;100.00;63355.56;5012719;28;20061;-79
2024/02/25 00:32:05;;;;;;;3.05;0.60;;;;;;;-141.50;100.00;63355.56;4992938;28;20066;-80
2024/02/25 00:34:32;;;;;;;0.80;0.38;;;;;;;-141.50;100.00;63355.56;4979116;28;20050;-80
2024/02/25 00:36:59;;;;;;;1.40;0.50;;;;;;;-141.50;100.00;63355.56;5014318;28;20054;-80
2024/02/25 00:39:26;;;;;;;0.63;0.35;;;;;;;-141.50;100.00;63355.56;4998446;28;20050;-80
2024/02/25 00:41:55;;;;;;;0.60;0.30;;;;;;;-141.50;100.00;63355.56;5001402;28;20057;-81
2024/02/25 00:44:22;;;;;;;1.13;0.40;;;;;;;-141.50;100.00;63355.56;4998925;28;20113;-80
2024/02/25 00:46:49;;;;;;;1.50;0.50;;;;;;;-141.50;100.00;63355.56;5014599;28;20048;-81
2024/02/25 00:49:17;;;;;;;0.60;0.40;;;;;;;-141.50;100.00;63355.56;5012657;28;20058;-80
2024/02/25 00:51:45;;;;;;;0.80;0.40;;;;;;;-141.50;100.00;63355.56;5012835;28;20752;-80
2024/02/25 00:54:12;;;;;;;1.33;0.50;;;;;;;-141.50;100.00;63355.56;5012802;28;20149;-81
2024/02/25 00:56:38;;;;;;;0.93;0.40;;;;;;;-141.50;100.00;63355.56;5013952;28;20046;-80
2024/02/25 00:59:06;;;;;;;0.85;0.47;;;;;;;-141.50;100.00;63355.56;5012569;28;20054;-79
2024/02/25 01:01:33;;;;;;;0.80;0.50;;;;;;;-141.50;100.00;63355.56;5013433;28;20050;-81
2024/02/25 01:03:59;;;;;;;0.55;0.40;;;;;;;-141.50;100.00;63355.56;4995715;28;20042;-79
2024/02/25 01:06:26;;;;;;;0.50;0.35;;;;;;;-141.50;100.00;63355.56;5013294;28;20479;-80
2024/02/25 01:08:53;;;;;;;1.10;0.50;;;;;;;-141.50;100.00;63355.56;4992951;28;20054;-81
2024/02/25 01:11:20;;;;;;;1.65;0.63;;;;;;;-141.50;100.00;63355.56;5012989;28;20560;-80
2024/02/25 01:13:47;;;;;;;4.07;1.50;;;;;;;-141.50;100.00;63355.56;5022449;28;20098;-79
2024/02/25 01:16:14;;;;;;;8.30;2.63;;;;;;;-141.50;100.00;63355.56;5012402;28;20151;-79
2024/02/25 01:18:40;;;;;;;4.90;2.13;;;;;;;-141.50;100.00;63355.56;4993229;28;20042;-81
2024/02/25 01:21:08;;;;;;;3.30;1.25;;;;;;;-141.50;100.00;63355.56;4993362;28;20054;-80
2024/02/25 01:23:35;;;;;;;2.90;0.88;;;;;;;-141.50;100.00;63355.56;4999802;28;20042;-80
2024/02/25 01:26:03;;;;;;;2.28;0.85;;;;;;;-141.50;100.00;63355.56;5005866;28;22353;-80
2024/02/25 01:28:30;;;;;;;1.83;0.80;;;;;;;-141.50;100.00;63355.56;4992362;28;20064;-81
2024/02/25 01:30:57;;;;;;;1.85;0.90;;;;;;;-141.50;100.00;63355.56;5012071;28;20052;-80
2024/02/25 01:33:23;;;;;;;2.95;1.05;;;;;;;-141.50;100.00;63355.56;4990726;28;20061;-80
2024/02/25 01:35:50;;;;;;;1.35;0.75;;;;;;;-141.50;100.00;63355.56;5008913;28;20042;-81
2024/02/25 01:38:17;;;;;;;2.55;0.90;;;;;;;-141.50;100.00;63355.56;5010000;28;20068;-80
2024/02/25 01:40:45;;;;;;;7.78;2.35;;;;;;;-141.50;100.00;63355.56;5013699;28;20049;-81
2024/02/25 01:43:17;;;;;;;4.00;1.40;;;;;;;-141.50;100.00;63355.56;5014747;28;20054;-80
2024/02/25 01:45:45;;;;;;;1.45;0.73;;;;;;;-141.50;100.00;63355.56;5012355;28;20054;-81
2024/02/25 01:48:15;;;;;;;2.35;0.90;;;;;;;-141.50;100.00;63355.56;5030123;28;20057;-81
2024/02/25 01:50:43;;;;;;;2.28;0.80;;;;;;;-141.50;100.00;63355.56;5002511;28;20035;-80
2024/02/25 01:53:11;;;;;;;3.03;0.70;;;;;;;-141.50;100.00;63355.56;5015860;28;20107;-81
2024/02/25 01:55:39;;;;;;;2.38;0.88;;;;;;;-141.50;100.00;63355.56;5000701;28;20046;-80
2024/02/25 01:58:06;;;;;;;3.03;1.10;;;;;;;-141.50;100.00;63355.56;4999364;28;20137;-81
2024/02/25 02:00:34;;;;;;;1.83;0.82;;;;;;;-141.50;100.00;63355.56;4984554;28;20056;-80
2024/02/25 02:03:01;;;;;;;3.20;1.05;;;;;;;-141.50;100.00;63355.56;5019657;28;20061;-80
2024/02/25 02:05:30;;;;;;;1.83;0.80;;;;;;;-141.50;100.00;63355.56;5006496;28;20053;-80
2024/02/25 02:07:56;;;;;;;2.05;0.90;;;;;;;-141.50;100.00;63355.56;5019472;28;20112;-81
2024/02/25 02:10:23;;;;;;;1.15;0.70;;;;;;;-141.50;100.00;63355.56;5003484;28;20089;-80
2024/02/25 02:12:50;;;;;;;1.92;0.90;;;;;;;-141.50;100.00;63355.56;5022727;28;20552;-81
2024/02/25 02:15:17;;;;;;;2.47;1.13;;;;;;;-141.50;100.00;63355.56;5015358;28;20054;-80
2024/02/25 02:17:44;;;;;;;1.70;0.68;;;;;;;-141.50;100.00;63355.56;4998753;28;20053;-79
2024/02/25 02:20:13;;;;;;;2.08;0.90;;;;;;;-141.50;100.00;63355.56;4994575;28;20074;-81
2024/02/25 02:22:41;;;;;;;4.60;0.70;;;;;;;-141.50;100.00;63355.56;5014849;28;20049;-81
2024/02/25 02:25:08;;;;;;;1.10;0.65;;;;;;;-141.50;100.00;63355.56;5014222;28;20049;-80
2024/02/25 02:27:36;;;;;;;1.50;0.70;;;;;;;-141.50;100.00;63355.56;5015829;28;20057;-80
2024/02/25 02:30:04;;;;;;;1.75;0.70;;;;;;;-141.50;100.00;63355.56;5014134;28;20061;-79
2024/02/25 02:32:32;;;;;;;3.17;0.93;;;;;;;-141.50;100.00;63355.56;5014510;28;20048;-82
2024/02/25 02:34:59;;;;;;;5.60;0.77;;;;;;;-141.50;100.00;63355.56;5015496;28;20045;-80
2024/02/25 02:37:26;;;;;;;1.30;0.60;;;;;;;-141.50;100.00;63355.56;4995470;28;20100;-80
2024/02/25 02:39:53;;;;;;;1.60;0.70;;;;;;;-141.50;100.00;63355.56;5015053;28;20054;-80
2024/02/25 02:42:21;;;;;;;1.90;0.90;;;;;;;-141.50;100.00;63355.56;5015442;28;20083;-78
2024/02/25 02:44:50;;;;;;;1.20;0.80;;;;;;;-141.50;100.00;63355.56;5016061;28;20058;-80
2024/02/25 02:47:20;;;;;;;2.22;0.77;;;;;;;-141.50;100.00;63355.56;5013906;28;20092;-81
2024/02/25 02:49:47;;;;;;;3.03;1.02;;;;;;;-141.50;100.00;63355.56;4997440;28;20038;-80
2024/02/25 02:52:15;;;;;;;3.20;1.10;;;;;;;-141.50;100.00;63355.56;5014708;28;20049;-80
2024/02/25 02:54:41;;;;;;;2.60;0.95;;;;;;;-141.50;100.00;63355.56;5012144;28;20045;-81
2024/02/25 02:57:08;;;;;;;2.88;1.23;;;;;;;-141.50;100.00;63355.56;5013974;28;20171;-79
2024/02/25 02:59:35;;;;;;;1.63;0.80;;;;;;;-141.50;100.00;63355.56;5014915;28;20042;-81
2024/02/25 03:02:03;;;;;;;2.40;1.00;;;;;;;-141.50;100.00;63355.56;5014478;28;20065;-79
2024/02/25 03:04:31;;;;;;;1.70;0.88;;;;;;;-141.50;100.00;63355.56;5015400;28;20050;-80
2024/02/25 03:06:58;;;;;;;1.52;0.70;;;;;;;-141.50;100.00;63355.56;5015170;28;20037;-81
2024/02/25 03:09:25;;;;;;;2.92;0.88;;;;;;;-141.50;100.00;63355.56;5000427;28;20054;-79
2024/02/25 03:11:52;;;;;;;1.42;0.80;;;;;;;-141.50;100.00;63355.56;5020606;28;20405;-80
2024/02/25 03:14:18;;;;;;;2.63;1.00;;;;;;;-141.50;100.00;63355.56;4999539;28;20405;-80
2024/02/25 03:16:45;;;;;;;2.40;0.88;;;;;;;-141.50;100.00;63355.56;4987415;28;20068;-79
2024/02/25 03:19:12;;;;;;;1.80;0.90;;;;;;;-141.50;100.00;63355.56;5011632;28;20540;-80
2024/02/25 03:21:43;;;;;;;2.53;1.00;;;;;;;-141.50;100.00;63355.56;5013276;28;20037;-79
2024/02/25 03:24:12;;;;;;;1.83;0.98;;;;;;;-141.50;100.00;63355.56;4999002;28;20052;-79
2024/02/25 03:26:39;;;;;;;2.00;0.95;;;;;;;-141.50;100.00;63355.56;4996978;28;20040;-80
2024/02/25 03:29:06;;;;;;;2.20;0.82;;;;;;;-141.50;100.00;63355.56;4992912;28;20137;-80
2024/02/25 03:31:34;;;;;;;1.88;0.90;;;;;;;-141.50;100.00;63355.56;4996060;28;20034;-80
2024/02/25 03:34:01;;;;;;;3.40;1.00;;;;;;;-141.50;100.00;63355.56;5012194;28;20439;-80
2024/02/25 03:36:29;;;;;;;3.10;1.17;;;;;;;-141.50;100.00;63355.56;5013203;28;20140;-79
2024/02/25 03:38:56;;;;;;;2.58;1.20;;;;;;;-141.50;100.00;63355.56;5014441;28;20034;-80
2024/02/25 03:41:23;;;;;;;2.60;1.10;;;;;;;-141.50;100.00;63355.56;5003227;28;20116;-81
2024/02/25 03:43:50;;;;;;;2.28;0.95;;;;;;;-141.50;100.00;63355.56;5016062;28;20056;-81
2024/02/25 03:46:16;;;;;;;2.15;1.00;;;;;;;-141.50;100.00;63355.56;5016065;28;20062;-79
2024/02/25 03:48:43;;;;;;;1.83;1.00;;;;;;;-141.50;100.00;63355.56;5017777;28;20117;-81
2024/02/25 03:51:10;;;;;;;1.88;0.80;;;;;;;-141.50;100.00;63355.56;5014393;28;20129;-80
2024/02/25 03:53:38;;;;;;;2.25;1.02;;;;;;;-141.50;100.00;63355.56;5015230;28;20125;-80
2024/02/25 03:56:07;;;;;;;1.20;0.70;;;;;;;-141.50;100.00;63355.56;4995243;28;20050;-80
2024/02/25 03:58:34;;;;;;;2.38;1.10;;;;;;;-141.50;100.00;63355.56;5011963;28;20054;-79
2024/02/25 04:01:01;;;;;;;2.28;0.75;;;;;;;-141.50;100.00;63355.56;4994322;28;20077;-81
2024/02/25 04:03:28;;;;;;;1.75;0.90;;;;;;;-141.50;100.00;63355.56;4994512;28;20129;-81
2024/02/25 04:05:55;;;;;;;1.08;0.75;;;;;;;-141.50;100.00;63355.56;5014113;28;20045;-80
2024/02/25 04:08:23;;;;;;;2.72;0.95;;;;;;;-141.50;100.00;63355.56;5001843;28;20054;-81
2024/02/25 04:10:50;;;;;;;2.13;0.95;;;;;;;-141.50;100.00;63355.56;4993973;28;20050;-81
2024/02/25 04:13:17;;;;;;;1.42;0.90;;;;;;;-141.50;100.00;63355.56;4994125;28;20042;-80
2024/02/25 04:15:44;;;;;;;2.53;0.82;;;;;;;-141.50;100.00;63355.56;5013243;28;20042;-80
2024/02/25 04:18:12;;;;;;;1.90;0.95;;;;;;;-141.50;100.00;63355.56;5012116;28;20115;-81
2024/02/25 04:20:38;;;;;;;2.42;1.00;;;;;;;-141.50;100.00;63355.56;4995454;28;20480;-79
2024/02/25 04:23:05;;;;;;;7.13;1.30;;;;;;;-141.50;100.00;63355.56;5011839;28;20038;-80
2024/02/25 04:25:32;;;;;;;3.28;1.20;;;;;;;-141.50;100.00;63355.56;5013282;28;20631;-82
2024/02/25 04:27:59;;;;;;;2.28;0.93;;;;;;;-141.50;100.00;63355.56;5013371;28;20038;-80
2024/02/25 04:30:26;;;;;;;1.77;0.90;;;;;;;-141.50;100.00;63355.56;5012460;28;20056;-80
2024/02/25 04:32:53;;;;;;;1.40;1.00;;;;;;;-141.50;100.00;63355.56;5012866;28;20259;-81
2024/02/25 04:35:21;;;;;;;2.08;1.00;;;;;;;-141.50;100.00;63355.56;4993642;28;20112;-80
2024/02/25 04:37:48;;;;;;;1.80;0.90;;;;;;;-141.50;100.00;63355.56;5012754;28;20045;-80
2024/02/25 04:40:15;;;;;;;2.80;1.30;;;;;;;-141.50;100.00;63355.56;4991577;28;20064;-80
2024/02/25 04:42:41;;;;;;;2.55;1.35;;;;;;;-141.50;100.00;63355.56;5011220;28;20037;-80
2024/02/25 04:45:08;;;;;;;2.20;1.30;;;;;;;-141.50;100.00;63355.56;5011364;28;20057;-81
2024/02/25 04:47:36;;;;;;;3.75;1.40;;;;;;;-141.50;100.00;63355.56;5011799;28;20045;-80
2024/02/25 04:50:03;;;;;;;3.00;1.40;;;;;;;-141.50;100.00;63355.56;4999966;28;20136;-81
2024/02/25 04:52:30;;;;;;;2.85;1.33;;;;;;;-141.50;100.00;63355.56;5011096;28;20050;-80
2024/02/25 04:54:57;;;;;;;2.05;1.35;;;;;;;-141.50;100.00;63355.56;5012297;28;20045;-80
2024/02/25 04:57:24;;;;;;;2.55;1.50;;;;;;;-141.50;100.00;63355.56;4993173;28;20061;-80
2024/02/25 04:59:50;;;;;;;3.60;1.40;;;;;;;-141.50;100.00;63355.56;4994464;28;20046;-79
2024/02/25 05:02:17;;;;;;;2.28;1.27;;;;;;;-141.50;100.00;63355.56;5009664;28;20427;-79
2024/02/25 05:04:44;;;;;;;2.95;1.52;;;;;;;-141.50;100.00;63355.56;4994008;28;20056;-80
2024/02/25 05:07:11;;;;;;;2.55;1.23;;;;;;;-141.50;100.00;63355.56;5020058;28;20030;-79
2024/02/25 05:09:38;;;;;;;2.78;1.40;;;;;;;-141.50;100.00;63355.56;4994258;28;20090;-79
2024/02/25 05:12:06;;;;;;;3.38;1.60;;;;;;;-141.50;100.00;63355.56;5009774;28;20050;-79
2024/02/25 05:14:33;;;;;;;3.90;1.58;;;;;;;-141.50;100.00;63355.56;5012285;28;20066;-80
2024/02/25 05:17:00;;;;;;;3.10;1.60;;;;;;;-141.50;100.00;63355.56;5015226;28;20050;-79
2024/02/25 05:19:26;;;;;;;3.05;1.30;;;;;;;-141.50;100.00;63355.56;4995835;28;20061;-79
2024/02/25 05:21:53;;;;;;;2.88;1.48;;;;;;;-141.50;100.00;63355.56;5014728;28;20054;-81
2024/02/25 05:24:21;;;;;;;4.25;1.50;;;;;;;-141.50;100.00;63355.56;5001031;28;20057;-80
2024/02/25 05:26:47;;;;;;;3.35;1.48;;;;;;;-141.50;100.00;63355.56;4990343;28;20137;-81
2024/02/25 05:29:14;;;;;;;2.38;1.30;;;;;;;-141.50;100.00;63355.56;4987605;28;20065;-80
2024/02/25 05:31:41;;;;;;;4.15;1.58;;;;;;;-141.50;100.00;63355.56;5003419;28;20461;-81
2024/02/25 05:34:07;;;;;;;3.47;1.33;;;;;;;-141.50;100.00;63355.56;5013773;28;20045;-81
2024/02/25 05:36:35;;;;;;;2.55;1.45;;;;;;;-141.50;100.00;63355.56;4998074;28;20042;-80
2024/02/25 05:39:04;;;;;;;2.55;1.50;;;;;;;-141.50;100.00;63355.56;5014359;28;20069;-81
2024/02/25 05:41:30;;;;;;;3.33;1.55;;;;;;;-141.50;100.00;63355.56;4997536;28;20054;-81
2024/02/25 05:43:57;;;;;;;2.83;1.35;;;;;;;-141.50;100.00;63355.56;5011886;28;20066;-81
2024/02/25 05:46:24;;;;;;;4.35;1.45;;;;;;;-141.50;100.00;63355.56;5006027;28;20065;-81
2024/02/25 05:48:51;;;;;;;3.00;1.27;;;;;;;-141.50;100.00;63355.56;4997473;28;20061;-81
2024/02/25 05:51:17;;;;;;;2.67;1.13;;;;;;;-141.50;100.00;63355.56;4996557;28;20053;-81
2024/02/25 05:53:44;;;;;;;2.80;1.25;;;;;;;-141.50;100.00;63355.56;4995215;28;20064;-81
2024/02/25 05:56:11;;;;;;;3.15;1.40;;;;;;;-141.50;100.00;63355.56;5011793;28;20046;-81
2024/02/25 05:58:38;;;;;;;3.72;1.45;;;;;;;-141.50;100.00;63355.56;4995014;28;20062;-82
2024/02/25 06:01:07;;;;;;;4.93;1.42;;;;;;;-141.50;100.00;63355.56;5012679;28;20061;-81
2024/02/25 06:03:34;;;;;;;5.60;1.30;;;;;;;-141.50;100.00;63355.56;5011783;28;20066;-81
2024/02/25 06:06:01;;;;;;;3.13;1.38;;;;;;;-141.50;100.00;63355.56;5021060;28;20054;-80
2024/02/25 06:08:28;;;;;;;3.28;1.13;;;;;;;-141.50;100.00;63355.56;4992596;28;20044;-81
2024/02/25 06:10:57;;;;;;;3.50;1.65;;;;;;;-141.50;100.00;63355.56;5012793;28;20076;-81
2024/02/25 06:13:24;;;;;;;2.20;1.40;;;;;;;-141.50;100.00;63355.56;4992935;28;20061;-80
2024/02/25 06:15:50;;;;;;;2.80;1.33;;;;;;;-141.50;100.00;63355.56;4993687;28;20065;-81
2024/02/25 06:18:18;;;;;;;2.72;1.35;;;;;;;-141.50;100.00;63355.56;5009874;28;20058;-81
2024/02/25 06:20:45;;;;;;;2.97;1.80;;;;;;;-141.50;100.00;63355.56;5010743;28;20123;-81
2024/02/25 06:23:11;;;;;;;3.13;1.58;;;;;;;-141.50;100.00;63355.56;5011695;28;20061;-80
2024/02/25 06:25:38;;;;;;;3.20;1.50;;;;;;;-141.50;100.00;63355.56;4990462;28;20136;-81
2024/02/25 06:28:05;;;;;;;1.60;1.17;;;;;;;-141.50;100.00;63355.56;5013275;28;20050;-80
2024/02/25 06:30:32;;;;;;;3.85;1.42;;;;;;;-141.50;100.00;63355.56;5010568;28;20580;-81
2024/02/25 06:33:00;;;;;;;3.08;1.50;;;;;;;-141.50;100.00;63355.56;4995460;28;20065;-80
2024/02/25 06:35:28;;;;;;;3.47;1.45;;;;;;;-141.50;100.00;63355.56;4985612;28;20123;-79
2024/02/25 06:37:58;;;;;;;3.33;1.83;;;;;;;-141.50;100.00;63355.56;5010036;28;20125;-81
2024/02/25 06:40:25;;;;;;;4.00;1.50;;;;;;;-141.50;100.00;63355.56;5007257;28;20088;-80
2024/02/25 06:42:51;;;;;;;3.95;1.65;;;;;;;-141.50;100.00;63355.56;5010141;28;20111;-81
2024/02/25 06:45:18;;;;;;;3.00;1.50;;;;;;;-141.50;100.00;63355.56;4999818;28;20053;-80
2024/02/25 06:47:46;;;;;;;3.40;1.50;;;;;;;-141.50;100.00;63355.56;5009075;28;20060;-79
2024/02/25 06:50:13;;;;;;;3.45;1.50;;;;;;;-141.50;100.00;63355.56;5009180;28;20512;-79
2024/02/25 06:52:40;;;;;;;3.65;1.70;;;;;;;-141.50;100.00;63355.56;4994932;28;20062;-80
2024/02/25 06:55:07;;;;;;;3.53;1.55;;;;;;;-141.50;100.00;63355.56;4987721;28;20079;-81
2024/02/25 06:57:34;;;;;;;2.80;1.27;;;;;;;-141.50;100.00;63355.56;5018977;28;20066;-80
2024/02/25 07:00:05;;;;;;;2.17;1.27;;;;;;;-141.50;100.00;63355.56;5026794;28;20054;-80
2024/02/25 07:02:32;;;;;;;3.92;1.63;;;;;;;-141.50;100.00;63355.56;5017202;28;20053;-79
2024/02/25 07:04:59;;;;;;;3.28;1.52;;;;;;;-141.50;100.00;63355.56;5021104;28;20149;-79
2024/02/25 07:07:27;;;;;;;2.75;1.60;;;;;;;-141.50;100.00;63355.56;5011557;28;20757;-80
2024/02/25 07:09:57;;;;;;;2.50;1.30;;;;;;;-141.50;100.00;63355.56;4994830;28;20061;-80
2024/02/25 07:12:24;;;;;;;3.42;1.45;;;;;;;-141.50;100.00;63355.56;5011018;28;20081;-79
2024/02/25 07:14:52;;;;;;;5.35;2.00;;;;;;;-141.50;100.00;63355.56;4995498;28;20565;-80
2024/02/25 07:17:20;;;;;;;4.70;1.75;;;;;;;-141.50;100.00;63355.56;5011522;28;20535;-79
2024/02/25 07:19:47;;;;;;;3.13;1.38;;;;;;;-141.50;100.00;63355.56;5010704;28;20088;-79
2024/02/25 07:22:14;;;;;;;4.55;1.80;;;;;;;-141.50;100.00;63355.56;4992622;28;20092;-81
2024/02/25 07:24:41;;;;;;;6.10;2.08;;;;;;;-141.50;100.00;63355.56;5011488;28;20609;-80
2024/02/25 07:27:08;;;;;;;5.70;2.47;;;;;;;-141.50;100.00;63355.56;5011012;28;20054;-80
2024/02/25 07:29:36;;;;;;;13.88;5.47;;;;;;;-141.50;100.00;63355.56;5009389;28;20053;-79
2024/02/25 07:32:03;;;;;;;14.65;5.15;;;;;;;-141.50;100.00;63355.56;5011292;28;20100;-80
2024/02/25 07:34:29;;;;;;;14.23;4.80;;;;;;;-141.50;100.00;63355.56;5007679;28;20053;-80
2024/02/25 07:36:57;;;;;;;13.98;5.22;;;;;;;-141.50;100.00;63355.56;4991491;28;20368;-80
2024/02/25 07:39:23;;;;;;;9.32;4.03;;;;;;;-141.50;100.00;63355.56;5005701;28;20053;-80
2024/02/25 07:41:50;;;;;;;13.82;4.57;;;;;;;-141.50;100.00;63355.56;4988838;28;20065;-80
2024/02/25 07:44:17;;;;;;;12.48;4.70;;;;;;;-141.50;100.00;63355.56;5003455;28;20119;-79
2024/02/25 07:46:44;;;;;;;10.02;3.72;;;;;;;-141.50;100.00;63355.56;5005261;28;20057;-79
2024/02/25 07:49:10;;;;;;;8.00;3.30;;;;;;;-141.50;100.00;63355.56;5005656;28;20104;-79
2024/02/25 07:51:38;;;;;;;8.80;3.63;;;;;;;-141.50;100.00;63355.56;4999664;28;20490;-78
2024/02/25 07:54:05;;;;;;;6.45;2.83;;;;;;;-141.50;100.00;63355.56;5005280;28;20069;-80
2024/02/25 07:56:32;;;;;;;7.90;2.40;;;;;;;-141.50;100.00;63355.56;5004858;28;20316;-80
2024/02/25 07:58:58;;;;;;;7.85;2.72;;;;;;;-141.50;100.00;63355.56;4988524;28;20695;-80
2024/02/25 08:01:26;;;;;;;5.38;2.67;;;;;;;-141.50;100.00;63355.56;5005708;28;20053;-80
2024/02/25 08:03:54;;;;;;;7.82;3.15;;;;;;;-141.50;100.00;63355.56;5016075;28;20057;-79
2024/02/25 08:06:28;;;;;;;5.47;2.70;;;;;;;-141.50;100.00;63355.56;5002966;28;20053;-78
2024/02/25 08:08:55;;;;;;;7.18;2.90;;;;;;;-141.50;100.00;63355.56;5002822;28;20072;-79
2024/02/25 08:11:22;;;;;;;7.03;2.83;;;;;;;-141.50;100.00;63355.56;4975477;28;20063;-78
2024/02/25 08:13:49;;;;;;;5.85;2.63;;;;;;;-141.50;100.00;63355.56;4983433;28;20050;-79
2024/02/25 08:16:15;;;;;;;4.93;2.20;;;;;;;-141.50;100.00;63355.56;5003062;28;20064;-80
2024/02/25 08:18:47;;;;;;;6.93;2.40;;;;;;;-141.50;100.00;63355.56;5003526;28;20065;-80
2024/02/25 08:21:14;;;;;;;7.97;3.15;;;;;;;-141.50;100.00;63355.56;4983712;28;20347;-79
2024/02/25 08:23:42;;;;;;;15.85;5.05;;;;;;;-141.50;100.00;63355.56;4984510;28;20050;-79
2024/02/25 08:26:09;;;;;;;21.80;7.55;;;;;;;-141.50;100.00;63355.56;4985985;28;20132;-80
2024/02/25 08:28:37;;;;;;;23.20;7.03;;;;;;;-141.50;100.00;63355.56;5003390;28;20057;-79
2024/02/25 08:31:04;;;;;;;24.20;8.25;;;;;;;-141.50;100.00;63355.56;4984887;28;20057;-79
2024/02/25 08:33:32;;;;;;;47.50;14.05;;;;;;;-141.50;100.00;63355.56;5005473;28;20669;-79
2024/02/25 08:36:00;;;;;;;23.25;7.00;;;;;;;-141.50;100.00;63355.56;4985797;28;20071;-80
2024/02/25 08:38:27;;;;;;;44.00;13.23;;;;;;;-141.50;100.00;63355.56;5005153;28;20060;-80
2024/02/25 08:40:55;;;;;;;11.80;3.65;;;;;;;-141.50;100.00;63355.56;4985221;28;20418;-79
2024/02/25 08:43:21;;;;;;;7.72;2.83;;;;;;;-141.50;100.00;63355.56;4985915;28;20151;-80
2024/02/25 08:45:49;;;;;;;9.98;2.85;;;;;;;-141.50;100.00;63355.56;5006360;28;20069;-79
2024/02/25 08:48:15;;;;;;;7.82;2.33;;;;;;;-141.50;100.00;63355.56;5005193;28;20062;-80
2024/02/25 08:50:42;;;;;;;4.75;1.88;;;;;;;-141.50;100.00;63355.56;5004868;28;20061;-81
2024/02/25 08:53:10;;;;;;;5.57;2.33;;;;;;;-141.50;100.00;63355.56;4993026;28;20057;-80
2024/02/25 08:55:36;;;;;;;7.63;2.60;;;;;;;-141.50;100.00;63355.56;4985727;28;20038;-80
2024/02/25 08:58:06;;;;;;;6.00;2.90;;;;;;;-141.50;100.00;63355.56;4962353;28;20099;-80
2024/02/25 09:00:33;;;;;;;9.35;2.78;;;;;;;-141.50;100.00;63355.56;5006763;28;20107;-80
2024/02/25 09:03:02;;;;;;;9.23;3.88;;;;;;;-141.50;100.00;63355.56;5010965;28;20062;-79
2024/02/25 09:05:29;;;;;;;4.75;1.98;;;;;;;-141.50;100.00;63355.56;4991986;28;20107;-80
2024/02/25 09:07:59;;;;;;;4.63;1.67;;;;;;;-141.50;100.00;63355.56;5014229;28;20060;-79
2024/02/25 09:10:25;;;;;;;5.53;2.03;;;;;;;-141.50;100.00;63355.56;4978052;28;20056;-80
2024/02/25 09:12:53;;;;;;;7.25;2.30;;;;;;;-141.50;100.00;63355.56;4995841;28;20061;-79
2024/02/25 09:15:21;;;;;;;5.15;2.30;;;;;;;-141.50;100.00;63355.56;5006361;28;20057;-78
2024/02/25 09:17:54;;;;;;;8.98;3.20;;;;;;;-141.50;100.00;63355.56;5003408;28;20065;-79
2024/02/25 09:20:22;;;;;;;7.80;2.97;;;;;;;-141.50;100.00;63355.56;5008034;28;20057;-80
2024/02/25 09:22:48;;;;;;;12.00;3.78;;;;;;;-141.50;100.00;63355.56;5005767;28;20058;-77
2024/02/25 09:25:15;;;;;;;9.82;3.28;;;;;;;-141.50;100.00;63355.56;5004215;28;20062;-77
2024/02/25 09:27:44;;;;;;;7.70;2.92;;;;;;;-141.50;100.00;63355.56;4987911;28;20420;-75
2024/02/25 09:30:14;;;;;;;4.90;2.15;;;;;;;-141.50;100.00;63355.56;5004970;28;20080;-79
2024/02/25 09:32:41;;;;;;;4.93;2.20;;;;;;;-141.50;100.00;63355.56;5002698;28;20888;-81
2024/02/25 09:35:08;;;;;;;7.20;2.50;;;;;;;-141.50;100.00;63355.56;4981839;28;20050;-81
2024/02/25 09:37:35;;;;;;;5.05;2.25;;;;;;;-141.50;100.00;63355.56;4998396;28;20108;-81
2024/02/25 09:40:01;;;;;;;4.65;2.22;;;;;;;-141.50;100.00;63355.56;4981877;28;20081;-81
2024/02/25 09:42:30;;;;;;;4.95;2.55;;;;;;;-141.50;100.00;63355.56;4991627;28;20054;-81
2024/02/25 09:44:57;;;;;;;5.30;2.30;;;;;;;-141.50;100.00;63355.56;4987002;28;20161;-81
2024/02/25 09:47:26;;;;;;;5.97;2.67;;;;;;;-141.50;100.00;63355.56;4987532;28;20069;-81
2024/02/25 09:49:53;;;;;;;4.18;2.28;;;;;;;-141.50;100.00;63355.56;4988759;28;20041;-82
2024/02/25 09:52:20;;;;;;;5.32;2.40;;;;;;;-141.50;100.00;63355.56;4982042;28;20149;-79
2024/02/25 09:54:47;;;;;;;13.75;3.45;;;;;;;-141.50;100.00;63355.56;4970666;28;20049;-82
2024/02/25 09:57:14;;;;;;;5.53;2.67;;;;;;;-141.50;100.00;63355.56;5006046;28;20520;-82
2024/02/25 09:59:41;;;;;;;5.25;2.10;;;;;;;-141.50;100.00;63355.56;5003335;28;20052;-80
2024/02/25 10:02:08;;;;;;;6.45;2.65;;;;;;;-141.50;100.00;63355.56;5006246;28;20494;-80
2024/02/25 10:04:36;;;;;;;3.85;2.00;;;;;;;-141.50;100.00;63355.56;4992109;28;20064;-79
2024/02/25 10:07:06;;;;;;;5.18;2.40;;;;;;;-141.50;100.00;63355.56;5007387;28;20061;-82
2024/02/25 10:09:34;;;;;;;4.07;2.33;;;;;;;-141.50;100.00;63355.56;5004395;28;20114;-80
2024/02/25 10:12:01;;;;;;;6.38;2.22;;;;;;;-141.50;100.00;63355.56;5011487;28;20570;-80
2024/02/25 10:14:31;;;;;;;6.50;2.33;;;;;;;-141.50;100.00;63355.56;4992344;28;20061;-81
2024/02/25 10:17:01;;;;;;;5.07;2.45;;;;;;;-141.50;100.00;63355.56;5008952;28;20070;-81
2024/02/25 10:19:30;;;;;;;3.50;1.95;;;;;;;-141.50;100.00;63355.56;5009562;28;20103;-81
2024/02/25 10:22:17;;;;;;;3.45;1.90;;;;;;;-141.50;100.00;63355.56;5007759;28;20053;-81
2024/02/25 10:24:47;;;;;;;4.45;2.10;;;;;;;-141.50;100.00;63355.56;4991764;28;20049;-81
2024/02/25 10:27:14;;;;;;;4.80;2.00;;;;;;;-141.50;100.00;63355.56;4996916;28;20058;-82
2024/02/25 10:29:55;;;;;;;3.30;1.90;;;;;;;-141.50;100.00;63355.56;5009689;28;20049;-80
2024/02/25 10:32:29;;;;;;;5.55;1.80;;;;;;;-141.50;100.00;63355.56;5008883;28;20113;-80
2024/02/25 10:34:58;;;;;;;3.92;1.85;;;;;;;-141.50;100.00;63355.56;4989467;28;20819;-77
2024/02/25 10:37:29;;;;;;;2.63;1.70;;;;;;;-141.50;100.00;63355.56;4990296;28;20834;-76
2024/02/25 10:39:57;;;;;;;5.10;2.00;;;;;;;-141.50;100.00;63355.56;5007661;28;20143;-79
2024/02/25 10:42:27;;;;;;;3.78;1.65;;;;;;;-141.50;100.00;63355.56;4988791;28;20455;-78
2024/02/25 10:44:57;;;;;;;3.50;1.67;;;;;;;-141.50;100.00;63355.56;4989197;28;20051;-80
2024/02/25 10:47:28;;;;;;;3.38;1.90;;;;;;;-141.50;100.00;63355.56;5014031;28;20060;-83
2024/02/25 10:49:55;;;;;;;2.97;1.55;;;;;;;-141.50;100.00;63355.56;4992235;28;20056;-81
2024/02/25 10:52:28;;;;;;;2.65;1.55;;;;;;;-141.50;100.00;63355.56;5009826;28;20058;-77
2024/02/25 10:54:58;;;;;;;3.20;1.35;;;;;;;-141.50;100.00;63355.56;4991997;28;20762;-79
2024/02/25 10:57:25;;;;;;;2.55;1.45;;;;;;;-141.50;100.00;63355.56;4990897;28;20173;-78
2024/02/25 10:59:53;;;;;;;3.80;1.50;;;;;;;-141.50;100.00;63355.56;4986845;28;20076;-77
2024/02/25 11:02:26;;;;;;;3.47;1.30;;;;;;;-141.50;100.00;63355.56;5014544;28;20137;-79
2024/02/25 11:04:54;;;;;;;2.42;1.02;;;;;;;-141.50;100.00;63355.56;4992632;28;20056;-79
2024/02/25 11:07:22;;;;;;;2.80;1.13;;;;;;;-141.50;100.00;63355.56;5013071;28;20076;-77
2024/02/25 11:09:48;;;;;;;2.50;1.10;;;;;;;-141.50;100.00;63355.56;5007406;28;20052;-80
2024/02/25 11:12:19;;;;;;;2.58;1.08;;;;;;;-141.50;100.00;63355.56;5002704;28;20475;-80